sensor_id;sensor_type;location;lat;lon;timestamp;pressure;altitude;pressure_sealevel;temperature
19282;BMP180;9774;52.034;5.342;2023-11-21T00:01:33;100868.00;;;13.00
19282;BMP180;9774;52.034;5.342;2023-11-21T00:04:00;100864.00;;;13.00
19282;BMP180;9774;52.034;5.342;2023-11-21T00:06:27;100865.00;;;13.00
19282;BMP180;9774;52.034;5.342;2023-11-21T00:08:56;100864.00;;;13.00
19282;BMP180;9774;52.034;5.342;2023-11-21T00:11:23;100862.00;;;13.00
19282;BMP180;9774;52.034;5.342;2023-11-21T00:13:51;100870.00;;;13.00
19282;BMP180;9774;52.034;5.342;2023-11-21T00:16:18;100866.00;;;13.00
19282;BMP180;9774;52.034;5.342;2023-11-21T00:18:46;100876.00;;;13.00
19282;BMP180;9774;52.034;5.342;2023-11-21T00:21:13;100878.00;;;13.10
19282;BMP180;9774;52.034;5.342;2023-11-21T00:23:40;100874.00;;;13.10
19282;BMP180;9774;52.034;5.342;2023-11-21T00:26:07;100872.00;;;13.10
19282;BMP180;9774;52.034;5.342;2023-11-21T00:28:34;100870.00;;;13.10
19282;BMP180;9774;52.034;5.342;2023-11-21T00:31:01;100880.00;;;13.10
19282;BMP180;9774;52.034;5.342;2023-11-21T00:33:28;100874.00;;;13.10
19282;BMP180;9774;52.034;5.342;2023-11-21T00:35:56;100879.00;;;13.10
19282;BMP180;9774;52.034;5.342;2023-11-21T00:38:23;100887.00;;;13.10
19282;BMP180;9774;52.034;5.342;2023-11-21T00:40:50;100887.00;;;13.20
19282;BMP180;9774;52.034;5.342;2023-11-21T00:43:19;100887.00;;;13.20
19282;BMP180;9774;52.034;5.342;2023-11-21T00:45:46;100877.00;;;13.20
19282;BMP180;9774;52.034;5.342;2023-11-21T00:48:15;100885.00;;;13.20
19282;BMP180;9774;52.034;5.342;2023-11-21T00:50:42;100889.00;;;13.20
19282;BMP180;9774;52.034;5.342;2023-11-21T00:53:10;100890.00;;;13.20
19282;BMP180;9774;52.034;5.342;2023-11-21T00:55:38;100889.00;;;13.20
19282;BMP180;9774;52.034;5.342;2023-11-21T00:58:05;100893.00;;;13.20
19282;BMP180;9774;52.034;5.342;2023-11-21T01:00:33;100901.00;;;13.30
19282;BMP180;9774;52.034;5.342;2023-11-21T01:03:00;100902.00;;;13.30
19282;BMP180;9774;52.034;5.342;2023-11-21T01:05:28;100909.00;;;13.30
19282;BMP180;9774;52.034;5.342;2023-11-21T01:07:55;100913.00;;;13.30
19282;BMP180;9774;52.034;5.342;2023-11-21T01:10:23;100915.00;;;13.30
19282;BMP180;9774;52.034;5.342;2023-11-21T01:12:50;100919.00;;;13.30
19282;BMP180;9774;52.034;5.342;2023-11-21T01:15:17;100922.00;;;13.30
19282;BMP180;9774;52.034;5.342;2023-11-21T01:17:44;100919.00;;;13.30
19282;BMP180;9774;52.034;5.342;2023-11-21T01:20:11;100921.00;;;13.30
19282;BMP180;9774;52.034;5.342;2023-11-21T01:22:39;100920.00;;;13.30
19282;BMP180;9774;52.034;5.342;2023-11-21T01:25:06;100919.00;;;13.30
19282;BMP180;9774;52.034;5.342;2023-11-21T01:27:34;100918.00;;;13.30
19282;BMP180;9774;52.034;5.342;2023-11-21T01:30:03;100918.00;;;13.30
19282;BMP180;9774;52.034;5.342;2023-11-21T01:32:30;100917.00;;;13.30
19282;BMP180;9774;52.034;5.342;2023-11-21T01:34:58;100918.00;;;13.30
19282;BMP180;9774;52.034;5.342;2023-11-21T01:37:25;100916.00;;;13.30
19282;BMP180;9774;52.034;5.342;2023-11-21T01:39:53;100925.00;;;13.30
19282;BMP180;9774;52.034;5.342;2023-11-21T01:42:21;100916.00;;;13.30
19282;BMP180;9774;52.034;5.342;2023-11-21T01:44:50;100928.00;;;13.30
19282;BMP180;9774;52.034;5.342;2023-11-21T01:47:17;100927.00;;;13.30
19282;BMP180;9774;52.034;5.342;2023-11-21T01:49:46;100926.00;;;13.30
19282;BMP180;9774;52.034;5.342;2023-11-21T01:52:13;100934.00;;;13.30
19282;BMP180;9774;52.034;5.342;2023-11-21T01:54:41;100940.00;;;13.30
19282;BMP180;9774;52.034;5.342;2023-11-21T01:57:08;100941.00;;;13.30
19282;BMP180;9774;52.034;5.342;2023-11-21T01:59:37;100942.00;;;13.40
19282;BMP180;9774;52.034;5.342;2023-11-21T02:02:06;100939.00;;;13.40
19282;BMP180;9774;52.034;5.342;2023-11-21T02:04:34;100945.00;;;13.40
19282;BMP180;9774;52.034;5.342;2023-11-21T02:07:01;100950.00;;;13.40
19282;BMP180;9774;52.034;5.342;2023-11-21T02:09:28;100952.00;;;13.40
19282;BMP180;9774;52.034;5.342;2023-11-21T02:11:57;100957.00;;;13.40
19282;BMP180;9774;52.034;5.342;2023-11-21T02:14:24;100954.00;;;13.40
19282;BMP180;9774;52.034;5.342;2023-11-21T02:16:53;100969.00;;;13.50
19282;BMP180;9774;52.034;5.342;2023-11-21T02:19:23;100976.00;;;13.50
19282;BMP180;9774;52.034;5.342;2023-11-21T02:21:52;100968.00;;;13.50
19282;BMP180;9774;52.034;5.342;2023-11-21T02:24:22;100967.00;;;13.50
19282;BMP180;9774;52.034;5.342;2023-11-21T02:26:50;100967.00;;;13.50
19282;BMP180;9774;52.034;5.342;2023-11-21T02:29:17;100972.00;;;13.60
19282;BMP180;9774;52.034;5.342;2023-11-21T02:31:49;100973.00;;;13.60
19282;BMP180;9774;52.034;5.342;2023-11-21T02:34:18;100984.00;;;13.60
19282;BMP180;9774;52.034;5.342;2023-11-21T02:36:45;100979.00;;;13.60
19282;BMP180;9774;52.034;5.342;2023-11-21T02:39:13;100985.00;;;13.70
19282;BMP180;9774;52.034;5.342;2023-11-21T02:41:41;100984.00;;;13.70
19282;BMP180;9774;52.034;5.342;2023-11-21T02:44:09;100988.00;;;13.70
19282;BMP180;9774;52.034;5.342;2023-11-21T02:46:37;100982.00;;;13.70
19282;BMP180;9774;52.034;5.342;2023-11-21T02:49:06;100986.00;;;13.70
19282;BMP180;9774;52.034;5.342;2023-11-21T02:51:35;100981.00;;;13.80
19282;BMP180;9774;52.034;5.342;2023-11-21T02:54:03;100985.00;;;13.80
19282;BMP180;9774;52.034;5.342;2023-11-21T02:56:32;100980.00;;;13.80
19282;BMP180;9774;52.034;5.342;2023-11-21T02:59:01;100983.00;;;13.80
19282;BMP180;9774;52.034;5.342;2023-11-21T03:01:28;100984.00;;;13.80
19282;BMP180;9774;52.034;5.342;2023-11-21T03:03:55;100976.00;;;13.90
19282;BMP180;9774;52.034;5.342;2023-11-21T03:06:22;100981.00;;;13.90
19282;BMP180;9774;52.034;5.342;2023-11-21T03:08:50;100990.00;;;13.90
19282;BMP180;9774;52.034;5.342;2023-11-21T03:11:17;100995.00;;;13.90
19282;BMP180;9774;52.034;5.342;2023-11-21T03:13:44;100984.00;;;14.00
19282;BMP180;9774;52.034;5.342;2023-11-21T03:16:14;100986.00;;;14.00
19282;BMP180;9774;52.034;5.342;2023-11-21T03:18:42;100982.00;;;14.00
19282;BMP180;9774;52.034;5.342;2023-11-21T03:21:10;100982.00;;;14.00
19282;BMP180;9774;52.034;5.342;2023-11-21T03:23:37;100982.00;;;14.10
19282;BMP180;9774;52.034;5.342;2023-11-21T03:26:05;100981.00;;;14.10
19282;BMP180;9774;52.034;5.342;2023-11-21T03:28:34;100984.00;;;14.10
19282;BMP180;9774;52.034;5.342;2023-11-21T03:31:01;100993.00;;;14.10
19282;BMP180;9774;52.034;5.342;2023-11-21T03:33:29;100993.00;;;14.10
19282;BMP180;9774;52.034;5.342;2023-11-21T03:35:56;100997.00;;;14.20
19282;BMP180;9774;52.034;5.342;2023-11-21T03:38:24;101003.00;;;14.20
19282;BMP180;9774;52.034;5.342;2023-11-21T03:40:51;100998.00;;;14.20
19282;BMP180;9774;52.034;5.342;2023-11-21T03:43:18;101003.00;;;14.20
19282;BMP180;9774;52.034;5.342;2023-11-21T03:45:45;101008.00;;;14.30
19282;BMP180;9774;52.034;5.342;2023-11-21T03:48:13;101000.00;;;14.30
19282;BMP180;9774;52.034;5.342;2023-11-21T03:50:41;101002.00;;;14.30
19282;BMP180;9774;52.034;5.342;2023-11-21T03:53:08;101002.00;;;14.30
19282;BMP180;9774;52.034;5.342;2023-11-21T03:55:35;101008.00;;;14.30
19282;BMP180;9774;52.034;5.342;2023-11-21T03:58:02;101009.00;;;14.30
19282;BMP180;9774;52.034;5.342;2023-11-21T04:00:31;101006.00;;;14.30
19282;BMP180;9774;52.034;5.342;2023-11-21T04:02:58;101014.00;;;14.30
19282;BMP180;9774;52.034;5.342;2023-11-21T04:05:25;101013.00;;;14.40
19282;BMP180;9774;52.034;5.342;2023-11-21T04:07:53;101015.00;;;14.40
19282;BMP180;9774;52.034;5.342;2023-11-21T04:10:20;101028.00;;;14.40
19282;BMP180;9774;52.034;5.342;2023-11-21T04:12:48;101018.00;;;14.40
19282;BMP180;9774;52.034;5.342;2023-11-21T04:15:15;101031.00;;;14.40
19282;BMP180;9774;52.034;5.342;2023-11-21T04:17:43;101030.00;;;14.40
19282;BMP180;9774;52.034;5.342;2023-11-21T04:20:11;101034.00;;;14.50
19282;BMP180;9774;52.034;5.342;2023-11-21T04:22:39;101038.00;;;14.50
19282;BMP180;9774;52.034;5.342;2023-11-21T04:25:12;101041.00;;;14.50
19282;BMP180;9774;52.034;5.342;2023-11-21T04:27:40;101046.00;;;14.50
19282;BMP180;9774;52.034;5.342;2023-11-21T04:30:10;101042.00;;;14.50
19282;BMP180;9774;52.034;5.342;2023-11-21T04:32:37;101051.00;;;14.50
19282;BMP180;9774;52.034;5.342;2023-11-21T04:35:06;101047.00;;;14.50
19282;BMP180;9774;52.034;5.342;2023-11-21T04:37:34;101057.00;;;14.50
19282;BMP180;9774;52.034;5.342;2023-11-21T04:40:01;101052.00;;;14.60
19282;BMP180;9774;52.034;5.342;2023-11-21T04:42:34;101062.00;;;14.60
19282;BMP180;9774;52.034;5.342;2023-11-21T04:45:01;101064.00;;;14.60
19282;BMP180;9774;52.034;5.342;2023-11-21T04:47:31;101071.00;;;14.60
19282;BMP180;9774;52.034;5.342;2023-11-21T04:49:58;101069.00;;;14.60
19282;BMP180;9774;52.034;5.342;2023-11-21T04:52:25;101073.00;;;14.60
19282;BMP180;9774;52.034;5.342;2023-11-21T04:54:52;101069.00;;;14.70
19282;BMP180;9774;52.034;5.342;2023-11-21T04:57:20;101076.00;;;14.70
19282;BMP180;9774;52.034;5.342;2023-11-21T04:59:49;101072.00;;;14.70
19282;BMP180;9774;52.034;5.342;2023-11-21T05:02:16;101078.00;;;14.70
19282;BMP180;9774;52.034;5.342;2023-11-21T05:04:45;101077.00;;;14.70
19282;BMP180;9774;52.034;5.342;2023-11-21T05:07:12;101083.00;;;14.70
19282;BMP180;9774;52.034;5.342;2023-11-21T05:09:41;101084.00;;;14.70
19282;BMP180;9774;52.034;5.342;2023-11-21T05:12:12;101094.00;;;14.80
19282;BMP180;9774;52.034;5.342;2023-11-21T05:14:40;101100.00;;;14.80
19282;BMP180;9774;52.034;5.342;2023-11-21T05:17:09;101100.00;;;14.80
19282;BMP180;9774;52.034;5.342;2023-11-21T05:19:36;101099.00;;;14.80
19282;BMP180;9774;52.034;5.342;2023-11-21T05:22:03;101106.00;;;14.80
19282;BMP180;9774;52.034;5.342;2023-11-21T05:24:31;101106.00;;;14.80
19282;BMP180;9774;52.034;5.342;2023-11-21T05:26:58;101103.00;;;14.90
19282;BMP180;9774;52.034;5.342;2023-11-21T05:29:26;101102.00;;;14.90
19282;BMP180;9774;52.034;5.342;2023-11-21T05:31:53;101109.00;;;14.90
19282;BMP180;9774;52.034;5.342;2023-11-21T05:34:22;101112.00;;;14.90
19282;BMP180;9774;52.034;5.342;2023-11-21T05:36:50;101122.00;;;14.90
19282;BMP180;9774;52.034;5.342;2023-11-21T05:39:17;101114.00;;;14.90
19282;BMP180;9774;52.034;5.342;2023-11-21T05:41:45;101127.00;;;14.90
19282;BMP180;9774;52.034;5.342;2023-11-21T05:44:12;101121.00;;;15.00
19282;BMP180;9774;52.034;5.342;2023-11-21T05:46:40;101124.00;;;15.00
19282;BMP180;9774;52.034;5.342;2023-11-21T05:49:09;101123.00;;;15.00
19282;BMP180;9774;52.034;5.342;2023-11-21T05:51:37;101134.00;;;15.00
19282;BMP180;9774;52.034;5.342;2023-11-21T05:54:05;101120.00;;;15.00
19282;BMP180;9774;52.034;5.342;2023-11-21T05:56:32;101126.00;;;15.00
19282;BMP180;9774;52.034;5.342;2023-11-21T05:58:58;101137.00;;;15.00
19282;BMP180;9774;52.034;5.342;2023-11-21T06:01:26;101146.00;;;15.00
19282;BMP180;9774;52.034;5.342;2023-11-21T06:03:53;101148.00;;;15.00
19282;BMP180;9774;52.034;5.342;2023-11-21T06:06:21;101155.00;;;15.00
19282;BMP180;9774;52.034;5.342;2023-11-21T06:08:51;101162.00;;;15.00
19282;BMP180;9774;52.034;5.342;2023-11-21T06:11:18;101164.00;;;15.10
19282;BMP180;9774;52.034;5.342;2023-11-21T06:13:45;101161.00;;;15.20
19282;BMP180;9774;52.034;5.342;2023-11-21T06:16:13;101177.00;;;15.10
19282;BMP180;9774;52.034;5.342;2023-11-21T06:18:43;101178.00;;;15.20
19282;BMP180;9774;52.034;5.342;2023-11-21T06:21:10;101180.00;;;15.20
19282;BMP180;9774;52.034;5.342;2023-11-21T06:23:37;101180.00;;;15.20
19282;BMP180;9774;52.034;5.342;2023-11-21T06:26:06;101187.00;;;15.20
19282;BMP180;9774;52.034;5.342;2023-11-21T06:28:35;101180.00;;;15.20
19282;BMP180;9774;52.034;5.342;2023-11-21T06:31:02;101179.00;;;15.20
19282;BMP180;9774;52.034;5.342;2023-11-21T06:33:31;101177.00;;;15.20
19282;BMP180;9774;52.034;5.342;2023-11-21T06:35:58;101182.00;;;15.20
19282;BMP180;9774;52.034;5.342;2023-11-21T06:38:25;101181.00;;;15.20
19282;BMP180;9774;52.034;5.342;2023-11-21T06:40:56;101181.00;;;15.20
19282;BMP180;9774;52.034;5.342;2023-11-21T06:43:25;101187.00;;;15.20
19282;BMP180;9774;52.034;5.342;2023-11-21T06:45:52;101190.00;;;15.20
19282;BMP180;9774;52.034;5.342;2023-11-21T06:48:20;101195.00;;;15.20
19282;BMP180;9774;52.034;5.342;2023-11-21T06:50:47;101189.00;;;15.20
19282;BMP180;9774;52.034;5.342;2023-11-21T06:53:14;101195.00;;;15.20
19282;BMP180;9774;52.034;5.342;2023-11-21T06:55:41;101205.00;;;15.20
19282;BMP180;9774;52.034;5.342;2023-11-21T06:58:08;101201.00;;;15.30
19282;BMP180;9774;52.034;5.342;2023-11-21T07:00:36;101206.00;;;15.30
19282;BMP180;9774;52.034;5.342;2023-11-21T07:03:03;101215.00;;;15.30
19282;BMP180;9774;52.034;5.342;2023-11-21T07:05:30;101222.00;;;15.30
19282;BMP180;9774;52.034;5.342;2023-11-21T07:07:57;101226.00;;;15.30
19282;BMP180;9774;52.034;5.342;2023-11-21T07:10:30;101234.00;;;15.30
19282;BMP180;9774;52.034;5.342;2023-11-21T07:12:57;101233.00;;;15.30
19282;BMP180;9774;52.034;5.342;2023-11-21T07:15:24;101233.00;;;15.30
19282;BMP180;9774;52.034;5.342;2023-11-21T07:17:52;101232.00;;;15.30
19282;BMP180;9774;52.034;5.342;2023-11-21T07:20:20;101228.00;;;15.30
19282;BMP180;9774;52.034;5.342;2023-11-21T07:22:47;101238.00;;;15.30
19282;BMP180;9774;52.034;5.342;2023-11-21T07:25:14;101238.00;;;15.40
19282;BMP180;9774;52.034;5.342;2023-11-21T07:27:42;101246.00;;;15.40
19282;BMP180;9774;52.034;5.342;2023-11-21T07:30:11;101250.00;;;15.40
19282;BMP180;9774;52.034;5.342;2023-11-21T07:32:39;101252.00;;;15.40
19282;BMP180;9774;52.034;5.342;2023-11-21T07:35:09;101252.00;;;15.40
19282;BMP180;9774;52.034;5.342;2023-11-21T07:37:35;101256.00;;;15.50
19282;BMP180;9774;52.034;5.342;2023-11-21T07:40:04;101254.00;;;15.50
19282;BMP180;9774;52.034;5.342;2023-11-21T07:42:31;101251.00;;;15.50
19282;BMP180;9774;52.034;5.342;2023-11-21T07:44:58;101255.00;;;15.50
19282;BMP180;9774;52.034;5.342;2023-11-21T07:47:25;101261.00;;;15.50
19282;BMP180;9774;52.034;5.342;2023-11-21T07:49:52;101255.00;;;15.60
19282;BMP180;9774;52.034;5.342;2023-11-21T07:52:23;101258.00;;;15.60
19282;BMP180;9774;52.034;5.342;2023-11-21T07:54:50;101263.00;;;15.60
19282;BMP180;9774;52.034;5.342;2023-11-21T07:57:17;101274.00;;;15.60
19282;BMP180;9774;52.034;5.342;2023-11-21T07:59:44;101274.00;;;15.70
19282;BMP180;9774;52.034;5.342;2023-11-21T08:02:10;101281.00;;;15.70
19282;BMP180;9774;52.034;5.342;2023-11-21T08:04:38;101284.00;;;15.70
19282;BMP180;9774;52.034;5.342;2023-11-21T08:07:06;101289.00;;;15.70
19282;BMP180;9774;52.034;5.342;2023-11-21T08:09:34;101293.00;;;15.80
19282;BMP180;9774;52.034;5.342;2023-11-21T08:12:01;101310.00;;;15.80
19282;BMP180;9774;52.034;5.342;2023-11-21T08:14:28;101305.00;;;15.80
19282;BMP180;9774;52.034;5.342;2023-11-21T08:16:55;101310.00;;;15.90
19282;BMP180;9774;52.034;5.342;2023-11-21T08:19:23;101308.00;;;15.90
19282;BMP180;9774;52.034;5.342;2023-11-21T08:21:51;101317.00;;;15.90
19282;BMP180;9774;52.034;5.342;2023-11-21T08:24:20;101316.00;;;16.00
19282;BMP180;9774;52.034;5.342;2023-11-21T08:26:49;101322.00;;;16.00
19282;BMP180;9774;52.034;5.342;2023-11-21T08:29:16;101328.00;;;16.00
19282;BMP180;9774;52.034;5.342;2023-11-21T08:31:44;101331.00;;;16.10
19282;BMP180;9774;52.034;5.342;2023-11-21T08:34:12;101337.00;;;16.10
19282;BMP180;9774;52.034;5.342;2023-11-21T08:36:42;101343.00;;;16.10
19282;BMP180;9774;52.034;5.342;2023-11-21T08:39:09;101356.00;;;16.10
19282;BMP180;9774;52.034;5.342;2023-11-21T08:41:36;101356.00;;;16.10
19282;BMP180;9774;52.034;5.342;2023-11-21T08:44:06;101355.00;;;16.20
19282;BMP180;9774;52.034;5.342;2023-11-21T08:46:33;101359.00;;;16.20
19282;BMP180;9774;52.034;5.342;2023-11-21T08:49:03;101362.00;;;16.20
19282;BMP180;9774;52.034;5.342;2023-11-21T08:51:30;101369.00;;;16.30
19282;BMP180;9774;52.034;5.342;2023-11-21T08:53:57;101368.00;;;16.30
19282;BMP180;9774;52.034;5.342;2023-11-21T08:56:26;101379.00;;;16.30
19282;BMP180;9774;52.034;5.342;2023-11-21T08:58:53;101374.00;;;16.30
19282;BMP180;9774;52.034;5.342;2023-11-21T09:01:22;101382.00;;;16.30
19282;BMP180;9774;52.034;5.342;2023-11-21T09:03:49;101387.00;;;16.30
19282;BMP180;9774;52.034;5.342;2023-11-21T09:06:16;101382.00;;;16.40
19282;BMP180;9774;52.034;5.342;2023-11-21T09:08:44;101391.00;;;16.40
19282;BMP180;9774;52.034;5.342;2023-11-21T09:11:11;101385.00;;;16.40
19282;BMP180;9774;52.034;5.342;2023-11-21T09:13:38;101383.00;;;16.50
19282;BMP180;9774;52.034;5.342;2023-11-21T09:16:05;101395.00;;;16.50
19282;BMP180;9774;52.034;5.342;2023-11-21T09:18:34;101409.00;;;16.60
19282;BMP180;9774;52.034;5.342;2023-11-21T09:21:01;101407.00;;;16.60
19282;BMP180;9774;52.034;5.342;2023-11-21T09:23:28;101410.00;;;16.70
19282;BMP180;9774;52.034;5.342;2023-11-21T09:25:55;101410.00;;;16.80
19282;BMP180;9774;52.034;5.342;2023-11-21T09:28:22;101409.00;;;16.80
19282;BMP180;9774;52.034;5.342;2023-11-21T09:30:49;101420.00;;;16.90
19282;BMP180;9774;52.034;5.342;2023-11-21T09:33:16;101429.00;;;16.90
19282;BMP180;9774;52.034;5.342;2023-11-21T09:35:45;101426.00;;;17.00
19282;BMP180;9774;52.034;5.342;2023-11-21T09:38:13;101420.00;;;17.00
19282;BMP180;9774;52.034;5.342;2023-11-21T09:40:40;101428.00;;;17.10
19282;BMP180;9774;52.034;5.342;2023-11-21T09:43:14;101431.00;;;17.10
19282;BMP180;9774;52.034;5.342;2023-11-21T09:45:46;101447.00;;;17.10
19282;BMP180;9774;52.034;5.342;2023-11-21T09:48:14;101441.00;;;17.10
19282;BMP180;9774;52.034;5.342;2023-11-21T09:50:44;101454.00;;;17.10
19282;BMP180;9774;52.034;5.342;2023-11-21T09:53:17;101464.00;;;17.10
19282;BMP180;9774;52.034;5.342;2023-11-21T09:55:49;101460.00;;;17.10
19282;BMP180;9774;52.034;5.342;2023-11-21T09:58:18;101460.00;;;17.10
19282;BMP180;9774;52.034;5.342;2023-11-21T10:00:47;101466.00;;;17.10
19282;BMP180;9774;52.034;5.342;2023-11-21T10:03:15;101473.00;;;17.20
19282;BMP180;9774;52.034;5.342;2023-11-21T10:05:45;101477.00;;;17.10
19282;BMP180;9774;52.034;5.342;2023-11-21T10:08:13;101486.00;;;17.10
19282;BMP180;9774;52.034;5.342;2023-11-21T10:10:45;101494.00;;;17.10
19282;BMP180;9774;52.034;5.342;2023-11-21T10:13:14;101493.00;;;17.10
19282;BMP180;9774;52.034;5.342;2023-11-21T10:15:43;101496.00;;;17.10
19282;BMP180;9774;52.034;5.342;2023-11-21T10:18:16;101494.00;;;17.10
19282;BMP180;9774;52.034;5.342;2023-11-21T10:20:45;101498.00;;;17.00
19282;BMP180;9774;52.034;5.342;2023-11-21T10:23:18;101512.00;;;17.00
19282;BMP180;9774;52.034;5.342;2023-11-21T10:25:46;101515.00;;;17.00
19282;BMP180;9774;52.034;5.342;2023-11-21T10:28:14;101521.00;;;17.10
19282;BMP180;9774;52.034;5.342;2023-11-21T10:30:41;101526.00;;;17.10
19282;BMP180;9774;52.034;5.342;2023-11-21T10:33:10;101515.00;;;17.10
19282;BMP180;9774;52.034;5.342;2023-11-21T10:35:44;101524.00;;;17.00
19282;BMP180;9774;52.034;5.342;2023-11-21T10:38:14;101523.00;;;17.10
19282;BMP180;9774;52.034;5.342;2023-11-21T10:40:41;101536.00;;;17.10
19282;BMP180;9774;52.034;5.342;2023-11-21T10:43:10;101546.00;;;17.10
19282;BMP180;9774;52.034;5.342;2023-11-21T10:45:39;101538.00;;;17.00
19282;BMP180;9774;52.034;5.342;2023-11-21T10:48:07;101550.00;;;17.00
19282;BMP180;9774;52.034;5.342;2023-11-21T10:50:35;101553.00;;;17.00
19282;BMP180;9774;52.034;5.342;2023-11-21T10:53:04;101558.00;;;17.00
19282;BMP180;9774;52.034;5.342;2023-11-21T10:55:33;101560.00;;;16.90
19282;BMP180;9774;52.034;5.342;2023-11-21T10:58:02;101566.00;;;16.90
19282;BMP180;9774;52.034;5.342;2023-11-21T11:00:31;101573.00;;;16.90
19282;BMP180;9774;52.034;5.342;2023-11-21T11:03:00;101573.00;;;16.90
19282;BMP180;9774;52.034;5.342;2023-11-21T11:05:29;101577.00;;;16.90
19282;BMP180;9774;52.034;5.342;2023-11-21T11:08:00;101579.00;;;16.90
19282;BMP180;9774;52.034;5.342;2023-11-21T11:10:31;101575.00;;;16.80
19282;BMP180;9774;52.034;5.342;2023-11-21T11:12:59;101578.00;;;16.80
19282;BMP180;9774;52.034;5.342;2023-11-21T11:15:28;101586.00;;;16.80
19282;BMP180;9774;52.034;5.342;2023-11-21T11:17:55;101578.00;;;16.80
19282;BMP180;9774;52.034;5.342;2023-11-21T11:20:27;101579.00;;;16.80
19282;BMP180;9774;52.034;5.342;2023-11-21T11:23:30;101590.00;;;16.70
19282;BMP180;9774;52.034;5.342;2023-11-21T11:26:13;101583.00;;;16.70
19282;BMP180;9774;52.034;5.342;2023-11-21T11:28:52;101586.00;;;16.80
19282;BMP180;9774;52.034;5.342;2023-11-21T11:31:37;101590.00;;;16.70
19282;BMP180;9774;52.034;5.342;2023-11-21T11:34:22;101597.00;;;16.70
19282;BMP180;9774;52.034;5.342;2023-11-21T11:37:00;101601.00;;;16.70
19282;BMP180;9774;52.034;5.342;2023-11-21T11:39:29;101598.00;;;16.80
19282;BMP180;9774;52.034;5.342;2023-11-21T11:42:05;101602.00;;;16.70
19282;BMP180;9774;52.034;5.342;2023-11-21T11:44:53;101599.00;;;16.70
19282;BMP180;9774;52.034;5.342;2023-11-21T11:47:26;101606.00;;;16.70
19282;BMP180;9774;52.034;5.342;2023-11-21T11:50:02;101607.00;;;16.70
19282;BMP180;9774;52.034;5.342;2023-11-21T11:52:36;101607.00;;;16.70
19282;BMP180;9774;52.034;5.342;2023-11-21T11:55:06;101608.00;;;16.70
19282;BMP180;9774;52.034;5.342;2023-11-21T11:57:38;101620.00;;;16.70
19282;BMP180;9774;52.034;5.342;2023-11-21T12:00:14;101623.00;;;16.60
19282;BMP180;9774;52.034;5.342;2023-11-21T12:02:46;101621.00;;;16.60
19282;BMP180;9774;52.034;5.342;2023-11-21T12:05:15;101630.00;;;16.70
19282;BMP180;9774;52.034;5.342;2023-11-21T12:07:45;101635.00;;;16.70
19282;BMP180;9774;52.034;5.342;2023-11-21T12:10:15;101637.00;;;16.70
19282;BMP180;9774;52.034;5.342;2023-11-21T12:12:46;101631.00;;;16.70
19282;BMP180;9774;52.034;5.342;2023-11-21T12:15:14;101631.00;;;16.70
19282;BMP180;9774;52.034;5.342;2023-11-21T12:17:43;101632.00;;;16.70
19282;BMP180;9774;52.034;5.342;2023-11-21T12:20:11;101644.00;;;16.70
19282;BMP180;9774;52.034;5.342;2023-11-21T12:22:44;101647.00;;;16.70
19282;BMP180;9774;52.034;5.342;2023-11-21T12:25:14;101647.00;;;16.70
19282;BMP180;9774;52.034;5.342;2023-11-21T12:27:46;101651.00;;;16.70
19282;BMP180;9774;52.034;5.342;2023-11-21T12:30:17;101651.00;;;16.70
19282;BMP180;9774;52.034;5.342;2023-11-21T12:32:47;101652.00;;;16.70
19282;BMP180;9774;52.034;5.342;2023-11-21T12:35:15;101650.00;;;16.70
19282;BMP180;9774;52.034;5.342;2023-11-21T12:37:45;101660.00;;;16.70
19282;BMP180;9774;52.034;5.342;2023-11-21T12:40:14;101651.00;;;16.70
19282;BMP180;9774;52.034;5.342;2023-11-21T12:42:46;101656.00;;;16.70
19282;BMP180;9774;52.034;5.342;2023-11-21T12:45:22;101656.00;;;16.70
19282;BMP180;9774;52.034;5.342;2023-11-21T12:47:54;101660.00;;;16.70
19282;BMP180;9774;52.034;5.342;2023-11-21T12:50:24;101666.00;;;16.70
19282;BMP180;9774;52.034;5.342;2023-11-21T12:52:59;101671.00;;;16.70
19282;BMP180;9774;52.034;5.342;2023-11-21T12:55:26;101670.00;;;16.80
19282;BMP180;9774;52.034;5.342;2023-11-21T12:57:58;101675.00;;;16.80
19282;BMP180;9774;52.034;5.342;2023-11-21T13:00:37;101683.00;;;16.70
19282;BMP180;9774;52.034;5.342;2023-11-21T13:03:07;101686.00;;;16.70
19282;BMP180;9774;52.034;5.342;2023-11-21T13:05:37;101686.00;;;16.70
19282;BMP180;9774;52.034;5.342;2023-11-21T13:08:07;101690.00;;;16.70
19282;BMP180;9774;52.034;5.342;2023-11-21T13:10:36;101694.00;;;16.70
19282;BMP180;9774;52.034;5.342;2023-11-21T13:13:07;101695.00;;;16.70
19282;BMP180;9774;52.034;5.342;2023-11-21T13:15:38;101691.00;;;16.70
19282;BMP180;9774;52.034;5.342;2023-11-21T13:18:06;101696.00;;;16.70
19282;BMP180;9774;52.034;5.342;2023-11-21T13:20:34;101701.00;;;16.70
19282;BMP180;9774;52.034;5.342;2023-11-21T13:23:08;101704.00;;;16.70
19282;BMP180;9774;52.034;5.342;2023-11-21T13:25:38;101706.00;;;16.80
19282;BMP180;9774;52.034;5.342;2023-11-21T13:28:08;101708.00;;;16.80
19282;BMP180;9774;52.034;5.342;2023-11-21T13:30:36;101706.00;;;16.80
19282;BMP180;9774;52.034;5.342;2023-11-21T13:33:07;101717.00;;;16.80
19282;BMP180;9774;52.034;5.342;2023-11-21T13:35:38;101722.00;;;16.80
19282;BMP180;9774;52.034;5.342;2023-11-21T13:38:09;101720.00;;;16.90
19282;BMP180;9774;52.034;5.342;2023-11-21T13:40:38;101721.00;;;16.90
19282;BMP180;9774;52.034;5.342;2023-11-21T13:43:10;101726.00;;;16.90
19282;BMP180;9774;52.034;5.342;2023-11-21T13:45:39;101729.00;;;16.90
19282;BMP180;9774;52.034;5.342;2023-11-21T13:48:10;101735.00;;;16.90
19282;BMP180;9774;52.034;5.342;2023-11-21T13:50:39;101741.00;;;16.90
19282;BMP180;9774;52.034;5.342;2023-11-21T13:53:14;101730.00;;;16.90
19282;BMP180;9774;52.034;5.342;2023-11-21T13:55:47;101747.00;;;16.90
19282;BMP180;9774;52.034;5.342;2023-11-21T13:58:16;101745.00;;;16.90
19282;BMP180;9774;52.034;5.342;2023-11-21T14:00:48;101751.00;;;16.90
19282;BMP180;9774;52.034;5.342;2023-11-21T14:03:23;101746.00;;;16.90
19282;BMP180;9774;52.034;5.342;2023-11-21T14:05:58;101752.00;;;16.90
19282;BMP180;9774;52.034;5.342;2023-11-21T14:08:26;101755.00;;;16.80
19282;BMP180;9774;52.034;5.342;2023-11-21T14:10:54;101764.00;;;16.80
19282;BMP180;9774;52.034;5.342;2023-11-21T14:13:24;101773.00;;;16.80
19282;BMP180;9774;52.034;5.342;2023-11-21T14:15:52;101771.00;;;16.80
19282;BMP180;9774;52.034;5.342;2023-11-21T14:18:23;101778.00;;;16.70